NorthEast MultiSport Indoor Time Trial at Goodales Bike Shop

Nashua, NH

Saturday, January 25, 2020

Athlete	Duration	Distance	Speed	Watts	W/Kg	Max	MW/KG	HR	RPMs	KCals
Doug Marks	0:15:24	6.17	24.04	377	4.46	773	9.16		85	338
Aaron Miller	0:15:55	6.17	23.25	343	4.11	784	9.4		88	320
Nate Thomas	0:16:01	6.17	23.11	357	4.37	514	6.3		84	331
Ben Koyle	0:16:05	6.17	23.02	376	4.27	585	6.65		102	351
Jeff Gordon	0:16:11	6.17	22.87	320	4.44	575	7.97		104	302
Tim O'Rourke	0:16:21	6.17	22.65	326	4.25	459	5.98	169	88	310
Peter Court	0:16:23	6.17	22.59	311	4.03	587	7.61		100	299
Eiric Marro	0:16:56	6.17	21.86	306	3.75	519	6.36		74	302
Tim Kennedy	0:16:57	6.17	21.84	310	3.73	653	7.87		103	305
Dave Delahunty	0:16:58	6.17	21.83	306	4.16	428	5.82		98	302
Jeff Kerr	0:17:04	6.17	21.69	276	4.25	396	6.1			277
Dave Dishaw	0:17:09	6.17	21.58	288	3.43	457	5.45		94	293
Eric Brown	0:17:11	6.17	21.55	317	3.76	599	7.1		94	318
Donald Pichette	0:17:17	6.17	21.43	283	3.78	379	5.06		92	284
David Foley	0:17:17	6.17	21.42	296	3.59	400	4.84		93	299
Hans Larsson	0:17:23	6.17	21.3	286	3.89	452	6.15		84	289
Jason Lambert	0:17:23	6.17	21.29	307	3.55	548	6.34			310
Mitchell Cohen	0:17:29	6.17	21.17	301	3.38	516	5.8		84	309
William Casazza	0:17:30	6.17	21.15	268	3.99	398	5.93		92	273
Doug Link	0:17:32	6.17	21.12	292	3.07	783	8.23		87	303
James Hall	0:17:33	6.17	21.09	272	3.67	613	8.25			285
Christopher White	0:17:37	6.17	21.02	259	3.81	385	5.66		92	267
James Henmueller	0:17:39	6.17	20.98	280	3.74	542	7.24		89	292
Kevin Perron	0:17:43	6.17	20.9	263	4.05	426	6.55		98	273
Craig Stoller	0:17:43	6.17	20.89	282	4.11	412	6.02			291
Stacey Dybel	0:17:47	6.17	20.81	268	3.94	506	7.44		97	279
Nicholas Weissman LaFrance	0:17:53	6.17	20.7	266	3.9	736	10.82		94	348
Bryon Callen	0:17:54	6.17	20.68	269	3.48	476	6.17		89	281
Paul Curtain	0:18:09	6.17	20.41	252	3.42	387	5.27		77	265
Steve Rodonis	0:18:10	6.17	20.39	315	2.92	510	4.72			416
Rob Landry	0:18:11	6.17	20.36	259	3.69	539	7.67		88	282
Will Baker	0:18:14	6.17	20.31	278	2.79	628	6.29		82	368
Mike Brown	0:18:20	6.17	20.19	292	3.43	548	6.43		94	315
Casey Drake	0:18:22	6.17	20.15	284	3.4	711	8.52		96	320
David Garcia	0:18:34	6.17	19.95	251	3.08	498	6.1		97	276
Will Hargett	0:18:42	6.17	19.79	256	3.42	353	4.72		104	281
Anna Cronin	0:18:48	6.17	19.7	261	3.49	452	6.04		100	290
Bradley Gauthier	0:19:00	6.17	19.48	286	2.76	514	4.97		76	321
Norman Kim	0:19:09	6.17	19.34	234	3.52	311	4.68		85	262
Ron Cheverette	0:19:22	6.17	19.12	261	3.11	444	5.29		83	296
Mike Beaudry	0:19:29	6.17	19	238	3.28	489	6.74		89	292
David Depiano	0:19:29	6.17	19	260	2.67	584	6		89	297
Ashley Blake	0:19:40	6.17	18.83	234	3.71	392	6.22			271
Frank Reinhold	0:19:46	6.17	18.73	241	2.68	394	4.39		94	286
Kevin Cripanuk	0:19:47	6.17	18.71	239	2.66	452	5.03		94	279
Karen Koutsavlis	0:19:47	6.17	18.71	223	3.28	456	6.7		99	322
Sarah Maineri	0:20:06	6.17	18.43	212	3.66	535	9.21	179	90	249
Cari Talbot	0:20:11	6.17	18.35	227	3.13	383	5.28		56	267
Christine Hall	0:20:26	6.17	18.12	218	3.34	347	5.33		96	262
Angela Bean	0:20:48	6.17	17.8	189	3.08	334	5.45		84	230
Susanne Carpenter	0:20:58	6.17	17.66	198	3.23	311	5.09		82	240
Bob Balfour	0:21:00	6.17	17.63	217	2.66	390	4.78		61	268
Tim Muehleisen	0:21:29	6.17	17.24	235	2.26	375	3.59	169	83	368
Ben Kiniry	0:21:34	6.17	17.17	199	2.76	353	4.89			253
Ashlyn Lembree	0:21:35	6.17	17.15	206	3.05	390	5.77		87	258
Stephanie Vore Apple	0:22:05	6.17	16.77	175	2.86	265	4.32		77	227
Jerry Burns	0:23:44	6.17	15.61	183	2.18	326	3.89	159	86	315
Michelle Mercier-Link	0:23:49	6.17	15.55	174	2.33	362	4.85		79	240
Calen Rubin	0:24:11	6.17	15.32	158	2.84	245	4.39		100	225
Linda Luther	0:24:35	6.17	15.06	152	2.42	256	4.09		83	220
Kate Johnson	0:25:14	6.17	14.68	149	2.45	243	4		87	219
Deepa Matta	0:25:22	6.17	14.6	154	2.31	290	4.35		77	229

BikeReg is the premier online event registration service for cycling events.

  • Created and run by bike racers and event directors
  • Easy, customizable, full-featured event management interface
  • Registration, Results and Fundraising solutions all in one place
  • Founded in 1999 - Two decades of experience streamlining the registration process

Learn more about the BikeReg Advantage

Register with